createdAt,value
2023-04-18T12:34:35.337Z,3145.7144
2023-04-18T12:35:36.319Z,5215.0781
2023-04-18T12:36:37.353Z,5445.0000
2023-04-18T12:37:38.362Z,3951.0938
2023-04-18T12:38:39.370Z,4540.3125
2023-04-18T12:39:40.314Z,2712.1875
2023-04-18T12:40:41.289Z,2118.5156
2023-04-18T12:41:42.255Z,2877.4219
2023-04-18T12:42:43.221Z,3483.0469
2023-04-18T12:43:44.212Z,1839.1406
2023-04-18T12:44:46.956Z,1554.6094
2023-04-18T12:45:46.326Z,1492.3369
2023-04-18T12:46:47.351Z,1616.4844
2023-04-18T12:47:48.393Z,2604.8438
2023-04-18T12:48:49.378Z,3880.3125
2023-04-18T12:49:50.438Z,2825.1562
2023-04-18T12:50:51.374Z,4382.8125
2023-04-18T12:51:52.379Z,3580.7812
2023-04-18T12:52:53.429Z,1844.5312
2023-04-18T12:53:54.405Z,1869.6094
2023-04-18T12:54:55.362Z,2411.7188
2023-04-18T12:55:56.351Z,4302.8906
2023-04-18T12:56:57.327Z,4543.3594
2023-04-18T12:57:58.369Z,4288.8281
2023-04-18T12:58:59.300Z,3421.6406
2023-04-18T13:00:00.310Z,4882.5000
2023-04-18T13:01:01.309Z,4833.7500
2023-04-18T13:02:02.317Z,4493.4375
2023-04-18T13:03:03.499Z,3517.2656
2023-04-18T13:04:12.447Z,1542.6562
2023-04-18T13:05:06.341Z,1438.4659
2023-04-18T13:06:08.410Z,1593.7500
2023-04-18T13:07:09.337Z,2105.3906
2023-04-18T13:08:17.054Z,2927.5781
2023-04-18T13:09:12.363Z,4383.4092
2023-04-18T13:10:13.453Z,4413.2812
2023-04-18T13:11:14.471Z,4100.3906
2023-04-18T13:12:15.410Z,3065.3906
2023-04-18T13:13:16.480Z,2077.9688
2023-04-18T13:14:17.465Z,1567.2656
2023-04-18T13:15:18.428Z,1567.2656
2023-04-18T13:16:19.491Z,1905.7031
2023-04-18T13:17:20.490Z,3251.2500
2023-04-18T13:18:21.473Z,3107.5781
2023-04-18T13:19:22.415Z,2869.2188
2023-04-18T13:20:23.493Z,2866.8750
2023-04-18T13:21:24.421Z,2718.7500
2023-04-18T13:22:25.412Z,2967.4219
2023-04-18T13:23:26.419Z,3072.8906
2023-04-18T13:24:27.383Z,2916.5625
2023-04-18T13:25:28.390Z,2974.9219
2023-04-18T13:26:29.336Z,3063.7500
2023-04-18T13:27:30.317Z,2918.6719
2023-04-18T13:28:31.009Z,2649.9106
2023-04-18T13:29:31.197Z,3461.2500
2023-04-18T13:30:32.038Z,3603.9707
2023-04-18T13:31:32.827Z,3723.0881
2023-04-18T13:32:33.676Z,3868.3457
2023-04-18T13:33:34.396Z,3860.0735
2023-04-18T13:34:35.129Z,3919.6323
2023-04-18T13:35:35.889Z,4034.1177
2023-04-18T13:36:36.635Z,4143.9707
2023-04-18T13:37:37.630Z,4050.0000
2023-04-18T13:38:38.400Z,3658.8970
2023-04-18T13:39:39.644Z,2975.2500
2023-04-18T13:40:40.361Z,3925.2573
2023-04-18T13:41:41.131Z,3822.0220
2023-04-18T13:42:41.836Z,3816.3970
2023-04-18T13:43:42.829Z,3777.6838
2023-04-18T13:44:43.583Z,3724.0808
2023-04-18T13:45:44.439Z,3703.5662
2023-04-18T13:46:45.417Z,3686.3604
2023-04-18T13:47:46.131Z,3690.9927
2023-04-18T13:48:46.887Z,3674.1177
2023-04-18T13:49:47.601Z,3628.4558
2023-04-18T13:50:48.344Z,3707.8677
2023-04-18T13:51:49.115Z,3440.8457
2023-04-18T13:52:49.808Z,3412.3896
2023-04-18T13:53:50.579Z,3318.7500
2023-04-18T13:54:51.343Z,3564.9265
2023-04-18T13:55:52.061Z,3678.4192
2023-04-18T13:56:52.803Z,3797.8677
2023-04-18T13:57:53.561Z,3856.7646
2023-04-18T13:58:54.290Z,3997.3896
2023-04-18T13:59:55.010Z,3998.7131
2023-04-18T14:00:56.318Z,3953.6250
2023-04-18T14:01:57.167Z,3879.5957
2023-04-18T14:02:58.059Z,3833.6030
2023-04-18T14:03:59.037Z,3767.4265
2023-04-18T14:05:00.037Z,3663.8604
2023-04-18T14:06:00.859Z,3728.3823
2023-04-18T14:07:01.659Z,3725.7354
2023-04-18T14:08:02.397Z,3674.7793
2023-04-18T14:09:03.369Z,3617.8677
2023-04-18T14:10:04.106Z,3631.1030
2023-04-18T14:11:04.873Z,3639.0442
2023-04-18T14:12:05.593Z,3588.4192
2023-04-18T14:13:06.334Z,3630.4412
2023-04-18T14:14:07.073Z,3685.0369
2023-04-18T14:15:07.890Z,3650.2500
2023-04-18T14:16:08.686Z,3465.6619
2023-04-18T14:17:09.426Z,3232.3896
2023-04-18T14:18:10.205Z,3284.0073
2023-04-18T14:19:11.036Z,3505.6985
2023-04-18T14:20:11.818Z,3620.1838
2023-04-18T14:21:12.592Z,3306.5073
2023-04-18T14:22:14.375Z,1811.6250
2023-04-18T14:23:15.100Z,3611.2500
2023-04-18T14:24:15.870Z,3073.5662
2023-04-18T14:25:16.615Z,3488.1619
2023-04-18T14:26:17.358Z,3622.8308
2023-04-18T14:27:18.105Z,2764.1912
2023-04-18T14:28:18.844Z,3191.0293
2023-04-18T14:29:19.582Z,3025.5881
2023-04-18T14:30:20.318Z,2515.3677
2023-04-18T14:31:21.125Z,1071.7279
2023-04-18T14:32:21.902Z,1272.2427
2023-04-18T14:33:22.633Z,1126.6544
2023-04-18T14:34:23.390Z,2642.4265
2023-04-18T14:35:24.118Z,2690.4043
2023-04-18T14:36:24.854Z,3257.8677
2023-04-18T14:37:25.613Z,3242.9780
2023-04-18T14:38:26.346Z,3329.0073
2023-04-18T14:39:27.119Z,3342.5735
2023-04-18T14:40:27.888Z,3414.3750
2023-04-18T14:41:28.631Z,3548.0515
2023-04-18T14:42:29.410Z,3522.2427
2023-04-18T14:43:30.156Z,3399.1543
2023-04-18T14:44:30.949Z,3511.9854
2023-04-18T14:45:31.693Z,3480.2207
2023-04-18T14:46:32.489Z,2928.3088
2023-04-18T14:47:33.274Z,3114.2646
2023-04-18T14:48:34.010Z,3268.4558
2023-04-18T14:49:34.758Z,2361.8381
2023-04-18T14:50:35.501Z,3027.5735
2023-04-18T14:51:36.306Z,2615.2942
2023-04-18T14:52:37.058Z,1352.3162
2023-04-18T14:53:37.805Z,1100.5146
2023-04-18T14:54:38.581Z,1067.4265
2023-04-18T14:55:39.317Z,2599.7427
2023-04-18T14:56:40.178Z,2998.1250
2023-04-18T14:57:40.939Z,2906.1396
2023-04-18T14:58:41.696Z,2929.9631
2023-04-18T14:59:42.480Z,2923.6765
2023-04-18T15:00:43.218Z,2921.6912
2023-04-18T15:01:43.974Z,2957.4265
2023-04-18T15:02:44.987Z,2907.1323
2023-04-18T15:03:46.007Z,2864.4485
2023-04-18T15:04:46.976Z,2877.6838
2023-04-18T15:05:47.756Z,2865.4412
2023-04-18T15:06:48.543Z,2862.4631
2023-04-18T15:07:49.275Z,2909.1177
2023-04-18T15:08:50.018Z,2947.8308
2023-04-18T15:09:50.806Z,2925.3308
2023-04-18T15:10:51.570Z,2925.0000
2023-04-18T15:11:59.846Z,2984.8896
2023-04-18T15:13:00.586Z,3005.4043
2023-04-18T15:14:01.807Z,2961.0662
2023-04-18T15:15:02.559Z,2971.3235
2023-04-18T15:16:03.383Z,2845.9192
2023-04-18T15:17:04.162Z,2700.9927
2023-04-18T15:18:04.992Z,2711.9119
2023-04-18T15:19:05.707Z,2778.7500
2023-04-18T15:20:06.477Z,2811.1765
2023-04-18T15:21:07.208Z,2781.3970
2023-04-18T15:22:07.949Z,2729.4485
2023-04-18T15:23:08.693Z,2766.5073
2023-04-18T15:24:09.450Z,2760.8823
2023-04-18T15:25:10.278Z,2712.9043
2023-04-18T15:26:10.990Z,2659.3015
2023-04-18T15:28:12.106Z,2619.5957
2023-04-18T15:29:14.364Z,2746.3235
2023-04-18T15:30:15.108Z,2778.0881
2023-04-18T15:31:15.986Z,2781.0662
2023-04-18T15:32:16.875Z,2775.7720
2023-04-18T15:33:17.577Z,2769.8162
2023-04-18T15:34:18.321Z,2764.1912
2023-04-18T15:35:19.078Z,2755.5881
2023-04-18T15:36:19.838Z,2726.1396
2023-04-18T15:37:20.582Z,2668.5662
2023-04-18T15:38:21.325Z,2604.7058
2023-04-18T15:39:22.044Z,2367.7942
2023-04-18T15:40:22.863Z,1770.5515
2023-04-18T15:41:23.650Z,1104.1544
2023-04-18T15:42:24.409Z,999.2647
2023-04-18T15:43:25.202Z,958.5662
2023-04-18T15:44:25.965Z,965.8456
2023-04-18T15:45:26.785Z,1589.8896
2023-04-18T15:46:27.549Z,1661.0294
2023-04-18T15:47:28.293Z,1634.8896
2023-04-18T15:48:29.078Z,1445.9559
2023-04-18T15:49:29.857Z,2111.6912
2023-04-18T15:50:32.160Z,2089.8530
2023-04-18T15:51:31.651Z,1790.8594
2023-04-18T15:52:32.460Z,954.9265
2023-04-18T15:53:33.247Z,1465.1471
2023-04-18T15:54:34.025Z,2002.5000
2023-04-18T15:55:34.827Z,1946.2500
2023-04-18T15:56:35.572Z,1961.4706
2023-04-18T15:57:36.355Z,1983.3088
2023-04-18T15:58:37.115Z,1947.9044
2023-04-18T15:59:37.927Z,1953.5294
2023-04-18T16:00:43.186Z,1989.1406
2023-04-18T16:01:45.835Z,2010.4412
2023-04-18T16:02:47.124Z,2058.7500
2023-04-18T16:03:48.072Z,2055.4412
2023-04-18T16:04:48.884Z,2052.7500
2023-04-18T16:05:49.648Z,1984.9633
2023-04-18T16:06:50.425Z,1888.5000
2023-04-18T16:07:51.254Z,1872.4633
2023-04-18T16:08:52.007Z,1803.9706
2023-04-18T16:09:52.828Z,1189.8529
2023-04-18T16:10:53.599Z,732.5735
2023-04-18T16:11:54.386Z,741.8383
2023-04-18T16:12:55.157Z,758.3823
2023-04-18T16:13:55.947Z,792.4633
2023-04-18T16:14:56.702Z,1344.0441
2023-04-18T16:15:57.746Z,1577.3162
2023-04-18T16:16:58.547Z,1527.0221
2023-04-18T16:17:59.377Z,1385.0735
2023-04-18T16:19:00.124Z,935.7353
2023-04-18T16:20:00.867Z,869.5588
2023-04-18T16:21:01.765Z,1110.1104
2023-04-18T16:22:02.531Z,1376.4706
2023-04-18T16:23:03.279Z,1356.6177
2023-04-18T16:24:04.292Z,1307.9779
2023-04-18T16:25:05.083Z,1262.9779
2023-04-18T16:26:05.888Z,1256.0294
2023-04-18T16:27:06.630Z,1270.9191
2023-04-18T16:28:07.397Z,1267.2794
2023-04-18T16:29:08.189Z,1243.4559
2023-04-18T16:30:08.986Z,1237.8309
2023-04-18T16:31:09.994Z,1225.9191
2023-04-18T16:32:10.761Z,1211.3604
2023-04-18T16:33:11.627Z,1217.6471
2023-04-18T16:34:12.511Z,1222.1250
2023-04-18T16:35:13.378Z,1236.8383
2023-04-18T16:36:14.473Z,1263.6396
2023-04-18T16:37:15.225Z,1264.6323
2023-04-18T16:38:16.023Z,1267.9412
2023-04-18T16:39:16.846Z,1278.1985
2023-04-18T16:40:17.624Z,1256.0294
2023-04-18T16:41:18.414Z,1209.7059
2023-04-18T16:42:19.196Z,1151.1396
2023-04-18T16:43:19.948Z,1107.1323
2023-04-18T16:44:20.720Z,1069.0809
2023-04-18T16:45:21.474Z,1038.0000
2023-04-18T16:46:22.322Z,996.6177
2023-04-18T16:47:23.111Z,953.2720
2023-04-18T16:48:23.899Z,913.5662
2023-04-18T16:49:24.686Z,896.3603
2023-04-18T16:50:25.500Z,889.4117
2023-04-18T16:51:26.317Z,882.1323
2023-04-18T16:52:27.105Z,874.5220
2023-04-18T16:53:28.206Z,863.9338
2023-04-18T16:54:28.962Z,855.6617
2023-04-18T16:55:29.759Z,848.0515
2023-04-18T16:56:30.726Z,841.7647
2023-04-18T16:57:31.508Z,813.9706
2023-04-18T16:58:32.269Z,786.5073
2023-04-18T16:59:33.058Z,773.9338
2023-04-18T17:00:33.821Z,759.7059
2023-04-18T17:01:34.705Z,750.1103
2023-04-18T17:02:35.522Z,720.9927
2023-04-18T17:03:36.798Z,687.9044
2023-04-18T17:04:37.756Z,661.4338
2023-04-18T17:05:38.573Z,642.5735
2023-04-18T17:06:39.398Z,629.0073
2023-04-18T17:07:40.174Z,615.7720
2023-04-18T17:08:40.980Z,608.8235
2023-04-18T17:09:41.734Z,593.9338
2023-04-18T17:10:42.542Z,586.9853
2023-04-18T17:11:43.482Z,583.0147
2023-04-18T17:12:44.294Z,556.2133
2023-04-18T17:13:45.054Z,495.3309
2023-04-18T17:14:45.854Z,408.6397
2023-04-18T17:15:46.699Z,351.7279
2023-04-18T17:16:47.736Z,338.4926
2023-04-18T17:17:48.953Z,339.1544
2023-04-18T17:18:49.963Z,359.3382
2023-04-18T17:19:50.729Z,379.5221
2023-04-18T17:20:51.517Z,379.5221
2023-04-18T17:21:52.351Z,368.2721
2023-04-18T17:22:53.117Z,354.3750
2023-04-18T17:23:53.893Z,343.1250
2023-04-18T17:24:54.676Z,331.2132
2023-04-18T17:25:55.780Z,317.3162
2023-04-18T17:26:56.570Z,307.7206
2023-04-18T17:27:57.413Z,302.7574
2023-04-18T17:28:57.309Z,295.7143
2023-04-18T17:29:58.086Z,288.1985
2023-04-18T17:30:59.115Z,276.9485
2023-04-18T17:31:59.910Z,263.7132
2023-04-18T17:33:00.712Z,252.4632
2023-04-18T17:34:01.596Z,234.5956
2023-04-18T17:35:02.351Z,218.3824
2023-04-18T17:36:04.319Z,210.1103
2023-04-18T17:37:03.234Z,208.1250
2023-04-18T17:38:04.024Z,202.8309
2023-04-18T17:39:04.805Z,194.5588
2023-04-18T17:40:05.588Z,186.6176
2023-04-18T17:41:06.370Z,177.6838
2023-04-18T17:42:07.172Z,171.3971
2023-04-18T17:43:07.958Z,166.7647
2023-04-18T17:44:08.836Z,162.1324
2023-04-18T17:45:09.603Z,157.1691
2023-04-18T17:46:17.490Z,151.2132
2023-04-18T17:47:18.401Z,146.9118
2023-04-18T17:48:26.930Z,144.9265
2023-04-18T17:49:20.637Z,140.6250
2023-04-18T17:50:21.414Z,140.6250
2023-04-18T17:51:22.426Z,138.6397
2023-04-18T17:52:23.227Z,135.3309
2023-04-18T17:53:24.034Z,133.3456
2023-04-18T17:54:24.833Z,128.0515
2023-04-18T17:55:25.637Z,121.7647
2023-04-18T17:56:26.423Z,118.1250
2023-04-18T17:57:27.235Z,113.1618
2023-04-18T17:58:27.995Z,107.8676
2023-04-18T17:59:28.773Z,101.9118
2023-04-18T18:00:29.557Z,96.2868
2023-04-18T18:01:30.474Z,90.9926
2023-04-18T18:02:31.471Z,85.6985
2023-04-18T18:03:32.498Z,80.7353
2023-04-18T18:04:33.467Z,76.1029
2023-04-18T18:05:34.341Z,71.8015
2023-04-18T18:06:35.119Z,67.5000
2023-04-18T18:07:35.906Z,62.2059
2023-04-18T18:08:37.072Z,58.5662
2023-04-18T18:09:37.867Z,55.2574
2023-04-18T18:10:38.617Z,50.6250
2023-04-18T18:11:39.384Z,46.3235
2023-04-18T18:12:40.381Z,43.3456
2023-04-18T18:13:41.180Z,39.3750
2023-04-18T18:14:41.994Z,35.0735
2023-04-18T18:15:42.744Z,33.7500
2023-04-18T18:16:43.567Z,28.7868
2023-04-18T18:17:44.407Z,28.1250
2023-04-18T18:18:45.235Z,23.8235
2023-04-18T18:19:46.028Z,22.5000
2023-04-18T18:20:46.793Z,20.5147
2023-04-18T18:21:47.588Z,16.8750
2023-04-18T18:22:48.373Z,16.8750
2023-04-18T18:23:49.153Z,13.5662
2023-04-18T18:24:49.928Z,11.2500
2023-04-18T18:25:50.711Z,11.2500
2023-04-18T18:26:51.832Z,11.2500
2023-04-18T18:27:52.676Z,5.9559
2023-04-18T18:28:53.418Z,5.6250
2023-04-18T18:29:54.198Z,5.6250
2023-04-18T18:30:54.990Z,5.6250
2023-04-18T18:31:55.721Z,5.6250
2023-04-18T18:32:56.528Z,0.6618
2023-04-18T18:33:57.312Z,0.0000
2023-04-18T18:34:58.110Z,0.0000
2023-04-18T18:35:58.880Z,0.0000
2023-04-18T18:36:59.653Z,0.0000
2023-04-18T18:38:00.702Z,0.0000
2023-04-18T18:39:01.485Z,0.0000
2023-04-18T18:40:02.261Z,0.0000
2023-04-18T18:41:03.926Z,0.0000
2023-04-18T18:42:04.719Z,0.0000
2023-04-18T18:43:05.538Z,0.0000
2023-04-18T18:44:06.292Z,0.0000
2023-04-18T18:45:07.048Z,0.0000
2023-04-18T18:46:07.856Z,0.0000
2023-04-18T18:47:08.606Z,0.0000
2023-04-18T18:48:09.644Z,0.0000
2023-04-18T18:49:10.430Z,0.0000
2023-04-18T18:50:11.177Z,0.0000
2023-04-18T18:51:11.989Z,0.0000
2023-04-18T18:52:12.794Z,0.0000
2023-04-18T18:53:13.575Z,0.0000
2023-04-18T18:54:14.347Z,0.0000
2023-04-18T18:55:15.154Z,0.0000
2023-04-18T18:56:15.925Z,0.0000
2023-04-18T18:57:16.683Z,0.0000
2023-04-18T18:58:17.477Z,0.0000
2023-04-18T18:59:18.250Z,0.0000
2023-04-18T19:00:19.032Z,0.0000
2023-04-18T19:01:19.839Z,0.0000
2023-04-18T19:02:20.818Z,0.0000
2023-04-18T19:03:21.885Z,0.0000
2023-04-18T19:04:22.869Z,0.0000
2023-04-18T19:05:23.889Z,0.0000
2023-04-18T19:06:24.660Z,0.0000
2023-04-18T19:07:25.525Z,0.0000
2023-04-18T19:08:26.854Z,0.0000
2023-04-18T19:09:27.600Z,0.0000
2023-04-18T19:10:28.366Z,0.0000
2023-04-18T19:11:29.174Z,0.0000
2023-04-18T19:12:29.920Z,0.0000
2023-04-18T19:13:30.872Z,0.0000
2023-04-18T19:14:31.634Z,0.0000
2023-04-18T19:15:32.408Z,0.0000
2023-04-18T19:16:33.239Z,0.0000
2023-04-18T19:17:34.034Z,0.0000
2023-04-18T19:18:34.804Z,0.0000
2023-04-18T19:19:35.572Z,0.0000
2023-04-18T19:20:36.394Z,0.0000
2023-04-18T19:21:37.206Z,0.0000
2023-04-18T19:22:38.006Z,0.0000
2023-04-18T19:23:38.857Z,0.0000
2023-04-18T19:24:39.630Z,0.0000
2023-04-18T19:25:40.448Z,0.0000
2023-04-18T19:26:41.212Z,0.0000
2023-04-18T19:27:41.996Z,0.0000
2023-04-18T19:28:42.784Z,0.0000
2023-04-18T19:29:43.575Z,0.0000
2023-04-18T19:30:44.376Z,0.0000
2023-04-18T19:31:45.143Z,0.0000
2023-04-18T19:32:45.956Z,0.0000
2023-04-18T19:33:46.729Z,0.0000
2023-04-18T19:34:47.542Z,0.0000
2023-04-18T19:35:48.333Z,0.0000
2023-04-18T19:36:49.109Z,0.0000
2023-04-18T19:37:49.886Z,0.0000
2023-04-18T19:38:50.706Z,0.0000
2023-04-18T19:39:51.495Z,0.0000
2023-04-18T19:40:52.275Z,0.0000
2023-04-18T19:41:53.039Z,0.0000
2023-04-18T19:42:54.073Z,0.0000
2023-04-18T19:43:54.862Z,0.0000
2023-04-18T19:44:55.636Z,0.0000
2023-04-18T19:45:56.469Z,0.0000
2023-04-18T19:46:57.240Z,0.0000
2023-04-18T19:47:58.075Z,0.0000
2023-04-18T19:48:58.833Z,0.0000
2023-04-18T19:49:59.619Z,0.0000
2023-04-18T19:51:00.396Z,0.0000
2023-04-18T19:52:01.209Z,0.0000
2023-04-18T19:53:02.016Z,0.0000
2023-04-18T19:54:02.815Z,0.0000
2023-04-18T19:55:03.586Z,0.0000
2023-04-18T19:56:04.352Z,0.0000
2023-04-18T19:57:05.118Z,0.0000
2023-04-18T19:58:05.914Z,0.0000
2023-04-18T19:59:06.701Z,0.0000
2023-04-18T20:00:07.460Z,0.0000
2023-04-18T20:01:08.311Z,0.0000
2023-04-18T20:02:09.133Z,0.0000
2023-04-18T20:03:10.064Z,0.0000
2023-04-18T20:04:11.162Z,0.0000
2023-04-18T20:05:12.133Z,0.0000
2023-04-18T20:06:13.031Z,0.0000
2023-04-18T20:07:13.786Z,0.0000
2023-04-18T20:08:14.581Z,0.0000
2023-04-18T20:09:15.636Z,0.0000
2023-04-18T20:10:16.853Z,0.0000
2023-04-18T20:11:17.609Z,0.0000
2023-04-18T20:12:18.415Z,0.0000
2023-04-18T20:13:19.418Z,0.0000
2023-04-18T20:14:20.198Z,0.0000
2023-04-18T20:15:20.997Z,0.0000
2023-04-18T20:16:21.782Z,0.0000
2023-04-18T20:17:22.592Z,0.0000
2023-04-18T20:18:23.435Z,0.0000
2023-04-18T20:19:24.244Z,0.0000
2023-04-18T20:20:25.003Z,0.0000
2023-04-18T20:21:25.754Z,0.0000
2023-04-18T20:22:26.548Z,0.0000
2023-04-18T20:23:27.564Z,0.0000
2023-04-18T20:24:28.380Z,0.0000
2023-04-18T20:25:29.210Z,0.0000
2023-04-18T20:26:29.952Z,0.0000
2023-04-18T20:27:30.744Z,0.0000
2023-04-18T20:28:38.644Z,0.0000
2023-04-18T20:29:39.444Z,0.0000
2023-04-18T20:30:40.260Z,0.0000
2023-04-18T20:31:41.026Z,0.0000
2023-04-18T20:32:41.851Z,0.0000
2023-04-18T20:33:42.585Z,0.0000
2023-04-18T20:34:51.940Z,0.0000
2023-04-18T20:35:52.733Z,0.0000
2023-04-18T20:36:53.516Z,0.0000
2023-04-18T20:37:54.306Z,0.0000
2023-04-18T20:38:55.095Z,0.0000
2023-04-18T20:39:55.898Z,0.0000
2023-04-18T20:40:56.660Z,0.0000
2023-04-18T20:41:57.537Z,0.0000
2023-04-18T20:42:58.429Z,0.0000
2023-04-18T20:43:59.198Z,0.0000
2023-04-18T20:44:59.956Z,0.0000
2023-04-18T20:46:00.764Z,0.0000
2023-04-18T20:47:01.541Z,0.0000
2023-04-18T20:48:02.614Z,0.0000
2023-04-18T20:49:03.372Z,0.0000
2023-04-18T20:50:04.176Z,0.0000
2023-04-18T20:51:04.979Z,0.0000
2023-04-18T20:52:05.769Z,0.0000
2023-04-18T20:53:06.529Z,0.0000
2023-04-18T20:54:07.305Z,0.0000
2023-04-18T20:55:08.089Z,0.0000
2023-04-18T20:56:08.951Z,0.0000
2023-04-18T20:57:09.714Z,0.0000
2023-04-18T20:58:10.523Z,0.0000
2023-04-18T20:59:11.310Z,0.0000
2023-04-18T21:00:12.068Z,0.0000
2023-04-18T21:01:12.898Z,0.0000
2023-04-18T21:02:13.795Z,0.0000
2023-04-18T21:03:14.667Z,0.0000
2023-04-18T21:04:15.923Z,0.0000
2023-04-18T21:05:17.557Z,0.0000
2023-04-18T21:06:18.326Z,0.0000
2023-04-18T21:07:19.097Z,0.0000
2023-04-18T21:08:20.145Z,0.0000
2023-04-18T21:09:20.936Z,0.0000
2023-04-18T21:10:21.701Z,0.0000
2023-04-18T21:11:22.453Z,0.0000
2023-04-18T21:12:23.248Z,0.0000
2023-04-18T21:13:24.035Z,0.0000
2023-04-18T21:14:24.824Z,0.0000
2023-04-18T21:15:25.872Z,0.0000
2023-04-18T21:16:26.699Z,0.0000
2023-04-18T21:17:27.473Z,0.0000
2023-04-18T21:18:28.514Z,0.0000
2023-04-18T21:19:29.299Z,0.0000
2023-04-18T21:20:30.117Z,0.0000
2023-04-18T21:21:30.910Z,0.0000
2023-04-18T21:22:31.663Z,0.0000
2023-04-18T21:23:32.458Z,0.0000
2023-04-18T21:24:33.212Z,0.0000
2023-04-18T21:25:34.225Z,0.0000
2023-04-18T21:26:35.021Z,0.0000
2023-04-18T21:27:35.802Z,0.0000
2023-04-18T21:28:36.790Z,0.0000
2023-04-18T21:29:37.553Z,0.0000
2023-04-18T21:30:38.345Z,0.0000
2023-04-18T21:31:39.171Z,0.0000
2023-04-18T21:32:39.927Z,0.0000
2023-04-18T21:33:40.691Z,0.0000
2023-04-18T21:34:42.420Z,0.0000
2023-04-18T21:35:43.187Z,0.0000
2023-04-18T21:36:44.002Z,0.0000
2023-04-18T21:37:44.754Z,0.0000
2023-04-18T21:38:45.533Z,0.0000
2023-04-18T21:39:46.311Z,0.0000
2023-04-18T21:40:47.080Z,0.0000
2023-04-18T21:41:47.858Z,0.0000
2023-04-18T21:42:49.881Z,0.0000
2023-04-18T21:43:50.732Z,0.0000
2023-04-18T21:44:51.489Z,0.0000
2023-04-18T21:45:52.366Z,0.0000
2023-04-18T21:46:53.114Z,0.0000
2023-04-18T21:47:54.166Z,0.0000
2023-04-18T21:48:54.916Z,0.0000
2023-04-18T21:49:55.708Z,0.0000
2023-04-18T21:50:56.712Z,0.0000
2023-04-18T21:51:57.486Z,0.0000
2023-04-18T21:52:58.290Z,0.0000
2023-04-18T21:53:59.080Z,0.0000
2023-04-18T21:54:59.860Z,0.0000
2023-04-18T21:56:00.640Z,0.0000
2023-04-18T21:57:01.423Z,0.0000
2023-04-18T21:58:03.226Z,0.0000
2023-04-18T21:59:04.023Z,0.0000
2023-04-18T22:00:04.778Z,0.0000
2023-04-18T22:01:05.847Z,0.0000
2023-04-18T22:02:06.845Z,0.0000
2023-04-18T22:03:07.901Z,0.0000
2023-04-18T22:04:08.884Z,0.0000
2023-04-18T22:05:09.765Z,0.0000
2023-04-18T22:06:10.558Z,0.0000
2023-04-18T22:07:11.340Z,0.0000
2023-04-18T22:08:12.155Z,0.0000
2023-04-18T22:09:12.967Z,0.0000
2023-04-18T22:10:13.747Z,0.0000
2023-04-18T22:11:14.526Z,0.0000
2023-04-18T22:12:15.301Z,0.0000
2023-04-18T22:13:16.103Z,0.0000
2023-04-18T22:14:17.019Z,0.0000
2023-04-18T22:15:17.801Z,0.0000
2023-04-18T22:16:18.829Z,0.0000
2023-04-18T22:17:19.628Z,0.0000
2023-04-18T22:18:20.420Z,0.0000
2023-04-18T22:19:21.230Z,0.0000
2023-04-18T22:20:22.022Z,0.0000
2023-04-18T22:21:22.823Z,0.0000
2023-04-18T22:22:23.668Z,0.0000
2023-04-18T22:23:24.491Z,0.0000
2023-04-18T22:24:25.289Z,0.0000
2023-04-18T22:25:26.104Z,0.0000
2023-04-18T22:26:26.915Z,0.0000
2023-04-18T22:27:27.719Z,0.0000
2023-04-18T22:28:28.787Z,0.0000
2023-04-18T22:29:29.583Z,0.0000
2023-04-18T22:30:30.473Z,0.0000
2023-04-18T22:31:31.388Z,0.0000
2023-04-18T22:32:32.200Z,0.0000
2023-04-18T22:33:32.955Z,0.0000
2023-04-18T22:34:33.787Z,0.0000
2023-04-18T22:35:34.622Z,0.0000
2023-04-18T22:36:35.982Z,0.0000
2023-04-18T22:37:36.772Z,0.0000
2023-04-18T22:38:37.590Z,0.0000
2023-04-18T22:39:38.422Z,0.0000
2023-04-18T22:40:39.241Z,0.0000
2023-04-18T22:41:40.089Z,0.0000
2023-04-18T22:42:40.891Z,0.0000
2023-04-18T22:43:41.735Z,0.0000
2023-04-18T22:44:42.553Z,0.0000
2023-04-18T22:45:43.435Z,0.0000
2023-04-18T22:46:44.281Z,0.0000
2023-04-18T22:47:45.250Z,0.0000
2023-04-18T22:48:46.138Z,0.0000
2023-04-18T22:49:46.925Z,0.0000
2023-04-18T22:50:47.723Z,0.0000
2023-04-18T22:51:48.586Z,0.0000
2023-04-18T22:52:49.437Z,0.0000
2023-04-18T22:53:50.288Z,0.0000
2023-04-18T22:54:51.135Z,0.0000
2023-04-18T22:55:52.164Z,0.0000
2023-04-18T22:56:52.991Z,0.0000
2023-04-18T22:57:53.795Z,0.0000
2023-04-18T22:58:54.633Z,0.0000
2023-04-18T22:59:55.425Z,0.0000
2023-04-18T23:00:56.254Z,0.0000
2023-04-18T23:01:57.138Z,0.0000
2023-04-18T23:02:58.361Z,0.0000
2023-04-18T23:03:59.266Z,0.0000
2023-04-18T23:05:00.144Z,0.0000
2023-04-18T23:06:01.036Z,0.0000
2023-04-18T23:07:01.881Z,0.0000
2023-04-18T23:08:02.991Z,0.0000
2023-04-18T23:09:03.904Z,0.0000
2023-04-18T23:10:04.725Z,0.0000
2023-04-18T23:11:05.551Z,0.0000
2023-04-18T23:12:06.406Z,0.0000
2023-04-18T23:13:07.232Z,0.0000
2023-04-18T23:14:08.035Z,0.0000
2023-04-18T23:15:08.874Z,0.0000
2023-04-18T23:16:09.942Z,0.0000
2023-04-18T23:17:10.824Z,0.0000
2023-04-18T23:18:11.892Z,0.0000
2023-04-18T23:19:12.722Z,0.0000
2023-04-18T23:20:13.557Z,0.0000
2023-04-18T23:21:14.353Z,0.0000
2023-04-18T23:22:15.154Z,0.0000
2023-04-18T23:23:15.976Z,0.0000
2023-04-18T23:24:16.962Z,0.0000
2023-04-18T23:25:17.838Z,0.0000
2023-04-18T23:26:18.920Z,0.0000
2023-04-18T23:27:19.782Z,0.0000
2023-04-18T23:28:20.736Z,0.0000
2023-04-18T23:29:21.517Z,0.0000
2023-04-18T23:30:22.353Z,0.0000
2023-04-18T23:31:23.193Z,0.0000
2023-04-18T23:32:24.108Z,0.0000
2023-04-18T23:33:24.944Z,0.0000
2023-04-18T23:34:25.741Z,0.0000
2023-04-18T23:35:26.534Z,0.0000
2023-04-18T23:36:27.379Z,0.0000
2023-04-18T23:37:28.213Z,0.0000
2023-04-18T23:38:29.016Z,0.0000
2023-04-18T23:39:29.829Z,0.0000
2023-04-18T23:40:30.668Z,0.0000
2023-04-18T23:41:31.470Z,0.0000
2023-04-18T23:42:32.293Z,0.0000
2023-04-18T23:43:33.347Z,0.0000
2023-04-18T23:44:34.175Z,0.0000
2023-04-18T23:45:35.011Z,0.0000
2023-04-18T23:46:36.704Z,0.0000
2023-04-18T23:47:37.643Z,0.0000
2023-04-18T23:48:40.208Z,0.0000
2023-04-18T23:49:41.014Z,0.0000
2023-04-18T23:50:41.853Z,0.0000
2023-04-18T23:51:42.676Z,0.0000
2023-04-18T23:52:43.546Z,0.0000
2023-04-18T23:53:44.651Z,0.0000
2023-04-18T23:54:45.474Z,0.0000
2023-04-18T23:55:46.288Z,0.0000
2023-04-18T23:56:47.099Z,0.0000
2023-04-18T23:57:47.951Z,0.0000
2023-04-18T23:58:48.774Z,0.0000
2023-04-18T23:59:49.584Z,0.0000
